Time;durP1;ratioP1;P1;durP2;ratioP2;P2;SDS_P1;SDS_P2;PMS_P1;PMS_P2;Temp;Humidity;BMP_temperature;BMP_pressure;BME280_temperature;BME280_humidity;BME280_pressure;Samples;Min_cycle;Max_cycle;Signal;HPM_P1;HPM_P2
2021/04/24 00:01:37;;;;;;;6.75;3.40;;;;;;;5.73;96.56;100087.93;1771787;81;21269;-80
2021/04/24 00:04:43;;;;;;;7.75;3.12;;;;;;;5.72;96.26;100091.15;1771477;81;21292;-80
2021/04/24 00:07:48;;;;;;;6.83;3.10;;;;;;;5.69;96.09;100090.08;1771696;81;21205;-80
2021/04/24 00:10:54;;;;;;;4.75;2.92;;;;;;;5.66;95.83;100089.05;1770262;80;21758;-80
2021/04/24 00:14:00;;;;;;;8.20;3.27;;;;;;;5.64;95.69;100088.33;1771725;81;21299;-80
2021/04/24 00:17:05;;;;;;;9.15;3.58;;;;;;;5.61;95.54;100089.50;1771668;81;21355;-80
2021/04/24 00:20:14;;;;;;;6.40;2.87;;;;;;;5.59;95.28;100093.34;1771642;81;21280;-80
2021/04/24 00:23:19;;;;;;;9.85;3.40;;;;;;;5.57;95.29;100084.52;1763519;81;21308;-81
2021/04/24 00:26:26;;;;;;;9.45;3.27;;;;;;;5.54;95.27;100086.16;1771819;81;21771;-81
2021/04/24 00:29:33;;;;;;;7.75;3.52;;;;;;;5.50;95.32;100086.95;1771450;81;21280;-81
2021/04/24 00:32:38;;;;;;;8.90;2.85;;;;;;;5.46;95.38;100091.47;1771893;81;21169;-81
2021/04/24 00:35:46;;;;;;;6.33;3.35;;;;;;;5.39;95.38;100104.28;1771690;81;21800;-81
2021/04/24 00:38:52;;;;;;;5.17;3.05;;;;;;;5.36;95.43;100104.59;1770886;80;21822;-81
2021/04/24 00:42:00;;;;;;;6.80;2.95;;;;;;;5.30;95.46;100107.88;1771852;81;21188;-81
2021/04/24 00:45:07;;;;;;;9.55;3.33;;;;;;;5.22;95.49;100101.47;1771483;81;21711;-81
2021/04/24 00:48:13;;;;;;;7.50;3.25;;;;;;;5.14;95.65;100104.94;1771823;81;21301;-80
2021/04/24 00:51:18;;;;;;;7.25;2.98;;;;;;;5.08;95.85;100117.23;1771776;81;21186;-81
2021/04/24 00:54:24;;;;;;;4.83;2.87;;;;;;;5.03;96.07;100118.64;1771834;81;21303;-81
2021/04/24 00:57:30;;;;;;;6.78;3.15;;;;;;;5.00;96.37;100119.80;1771774;81;21300;-81
2021/04/24 01:00:36;;;;;;;6.08;2.87;;;;;;;5.03;96.70;100128.13;1771773;81;21276;-81
2021/04/24 01:03:41;;;;;;;5.65;3.25;;;;;;;5.06;96.92;100123.78;1771775;81;21880;-81
2021/04/24 01:06:47;;;;;;;6.33;2.92;;;;;;;5.09;97.06;100126.22;1761250;81;21277;-81
2021/04/24 01:09:52;;;;;;;4.20;3.15;;;;;;;5.12;97.12;100121.33;1771897;81;21260;-81
2021/04/24 01:12:58;;;;;;;6.17;3.40;;;;;;;5.17;97.17;100129.03;1770349;80;21185;-81
2021/04/24 01:16:05;;;;;;;8.10;3.72;;;;;;;5.21;97.22;100121.47;1771666;81;21145;-81
2021/04/24 01:19:11;;;;;;;4.67;2.72;;;;;;;5.24;97.12;100123.39;1771799;81;21292;-81
2021/04/24 01:22:17;;;;;;;4.92;2.60;;;;;;;5.27;97.05;100117.69;1771515;81;21335;-81
2021/04/24 01:25:27;;;;;;;8.33;2.77;;;;;;;5.28;96.82;100115.82;1771658;81;21272;-81
2021/04/24 01:28:34;;;;;;;4.70;2.65;;;;;;;5.24;96.53;100117.97;1771965;81;21311;-81
2021/04/24 01:31:41;;;;;;;8.13;3.22;;;;;;;5.19;96.29;100121.63;1771879;81;21300;-81
2021/04/24 01:34:48;;;;;;;4.87;2.85;;;;;;;5.12;96.14;100123.19;1771603;81;21355;-81
2021/04/24 01:37:55;;;;;;;6.33;3.15;;;;;;;5.06;95.95;100127.84;1771758;81;21307;-81
2021/04/24 01:41:02;;;;;;;5.80;2.98;;;;;;;4.99;95.89;100125.37;1762173;81;21170;-80
2021/04/24 01:44:08;;;;;;;5.15;2.92;;;;;;;4.94;95.83;100136.66;1771772;81;21189;-81
2021/04/24 01:47:13;;;;;;;6.10;3.02;;;;;;;4.90;95.82;100133.02;1771777;81;21296;-81
2021/04/24 01:50:25;;;;;;;6.50;2.40;;;;;;;4.86;95.78;100144.64;1771762;81;21173;-81
2021/04/24 01:53:31;;;;;;;8.25;3.40;;;;;;;4.79;95.66;100138.07;1771757;81;21303;-81
2021/04/24 01:56:49;;;;;;;7.87;3.90;;;;;;;4.71;95.56;100144.23;1771663;81;21695;-81
2021/04/24 01:59:55;;;;;;;6.80;4.05;;;;;;;4.62;95.56;100143.72;1769174;80;21863;-80
2021/04/24 02:03:01;;;;;;;6.33;3.65;;;;;;;4.55;95.65;100151.55;1771172;81;21826;-81
2021/04/24 02:06:06;;;;;;;9.08;4.53;;;;;;;4.53;95.69;100150.84;1761372;81;21229;-81
2021/04/24 02:09:18;;;;;;;7.95;4.12;;;;;;;4.48;95.74;100162.61;1771791;81;21272;-81
2021/04/24 02:12:22;;;;;;;;;;;;;;;4.46;95.85;100165.08;1774208;81;21279;-80
2021/04/24 02:15:27;;;;;;;9.98;5.42;;;;;;;4.42;95.84;100165.00;1759825;81;20190;-81
2021/04/24 02:18:33;;;;;;;8.63;5.40;;;;;;;4.34;95.93;100174.70;1771930;81;21838;-81
2021/04/24 02:21:38;;;;;;;9.40;5.65;;;;;;;4.31;96.04;100174.11;1771586;81;21299;-81
2021/04/24 02:24:53;;;;;;;13.98;6.80;;;;;;;4.26;96.23;100170.97;1771869;81;21264;-81
2021/04/24 02:27:58;;;;;;;10.58;5.20;;;;;;;4.24;96.43;100171.62;1771941;81;21901;-81
2021/04/24 02:31:04;;;;;;;9.10;5.30;;;;;;;4.22;96.60;100173.59;1771768;81;21268;-81
2021/04/24 02:34:09;;;;;;;8.15;5.45;;;;;;;4.21;96.76;100178.66;1771781;81;21303;-81
2021/04/24 02:37:15;;;;;;;9.15;5.30;;;;;;;4.20;96.85;100185.07;1761276;81;21189;-81
2021/04/24 02:40:27;;;;;;;12.20;6.17;;;;;;;4.20;96.91;100188.63;1776705;80;21161;-81
2021/04/24 02:43:33;;;;;;;9.13;6.25;;;;;;;4.17;96.91;100191.60;1784702;80;21850;-81
2021/04/24 02:46:41;;;;;;;11.78;7.20;;;;;;;4.16;96.91;100187.69;1785397;80;21270;-80
2021/04/24 02:49:45;;;;;;;12.43;7.90;;;;;;;4.16;96.93;100190.40;1770946;80;21265;-81
2021/04/24 02:52:51;;;;;;;13.30;8.05;;;;;;;4.16;96.97;100192.60;1784917;80;21275;-81
2021/04/24 02:55:56;;;;;;;13.90;7.87;;;;;;;4.25;97.14;100194.48;1770728;80;21212;-81
2021/04/24 02:59:00;;;;;;;9.55;7.03;;;;;;;4.38;97.35;100199.66;1785458;80;21199;-80
2021/04/24 03:02:05;;;;;;;15.13;8.28;;;;;;;4.51;97.31;100204.78;1785409;80;21252;-80
2021/04/24 03:05:25;;;;;;;13.93;7.83;;;;;;;4.61;97.10;100204.30;1785537;80;21189;-80
2021/04/24 03:08:31;;;;;;;10.95;7.90;;;;;;;4.67;96.71;100209.17;1785651;80;21181;-81
2021/04/24 03:11:36;;;;;;;15.93;7.97;;;;;;;4.77;96.39;100215.45;1785568;80;21196;-81
2021/04/24 03:14:42;;;;;;;13.58;7.17;;;;;;;4.86;96.04;100217.31;1768988;80;21738;-81
2021/04/24 03:17:48;;;;;;;16.30;8.78;;;;;;;4.92;95.56;100228.58;1785525;80;21291;-81
2021/04/24 03:20:54;;;;;;;15.68;8.40;;;;;;;4.98;95.23;100220.73;1785545;80;21587;-81
2021/04/24 03:24:00;;;;;;;13.50;7.87;;;;;;;5.09;94.94;100225.17;1785389;80;21180;-81
2021/04/24 03:27:06;;;;;;;14.00;8.63;;;;;;;5.18;94.62;100228.38;1785486;80;21220;-81
2021/04/24 03:30:14;;;;;;;14.80;9.68;;;;;;;5.30;94.42;100232.63;1768924;80;21268;-80
2021/04/24 03:33:19;;;;;;;12.53;8.28;;;;;;;5.44;93.98;100238.62;1785426;80;21180;-81
2021/04/24 03:36:25;;;;;;;13.58;8.05;;;;;;;5.54;93.41;100241.66;1785434;80;21204;-81
2021/04/24 03:39:31;;;;;;;16.07;10.25;;;;;;;5.62;92.76;100250.44;1772241;80;21180;-81
2021/04/24 03:42:36;;;;;;;15.80;9.73;;;;;;;5.66;91.94;100251.02;1783403;80;21276;-81
2021/04/24 03:45:43;;;;;;;15.55;10.20;;;;;;;5.72;91.52;100251.27;1783761;80;21161;-81
2021/04/24 03:48:49;;;;;;;16.27;9.28;;;;;;;5.81;91.08;100254.46;1785169;80;21699;-81
2021/04/24 03:51:53;;;;;;;15.78;9.55;;;;;;;5.92;90.65;100243.10;1785353;80;21723;-81
2021/04/24 03:54:58;;;;;;;15.50;8.90;;;;;;;5.99;89.78;100246.95;1785474;80;21684;-81
2021/04/24 03:58:03;;;;;;;18.05;9.45;;;;;;;6.07;89.03;100254.71;1785334;80;21295;-81
2021/04/24 04:01:09;;;;;;;17.52;7.55;;;;;;;6.11;88.39;100246.59;1785434;80;21762;-81
2021/04/24 04:04:15;;;;;;;14.68;8.53;;;;;;;6.17;87.36;100252.46;1785537;80;21276;-81
2021/04/24 04:07:20;;;;;;;20.77;9.23;;;;;;;6.18;86.57;100256.88;1785255;80;21791;-81
2021/04/24 04:10:27;;;;;;;17.42;9.78;;;;;;;6.20;86.16;100257.58;1785511;80;21172;-82
2021/04/24 04:13:33;;;;;;;16.87;9.13;;;;;;;6.24;85.60;100258.98;1785188;80;21184;-82
2021/04/24 04:16:39;;;;;;;18.02;9.55;;;;;;;6.28;85.13;100263.97;1785410;80;21200;-82
2021/04/24 04:19:45;;;;;;;28.85;13.62;;;;;;;6.31;85.13;100260.97;1785209;80;22092;-82
2021/04/24 04:22:54;;;;;;;30.17;11.53;;;;;;;6.35;84.15;100267.82;1785362;79;21135;-82
2021/04/24 04:26:02;;;;;;;37.10;14.75;;;;;;;6.35;83.92;100264.22;1785060;80;21276;-82
2021/04/24 04:29:09;;;;;;;17.98;9.78;;;;;;;6.40;84.09;100265.50;1785216;80;21185;-82
2021/04/24 04:32:15;;;;;;;25.80;12.33;;;;;;;6.49;83.38;100269.15;1785440;80;21283;-82
2021/04/24 04:35:21;;;;;;;19.02;9.53;;;;;;;6.57;83.12;100275.20;1785383;80;21152;-82
2021/04/24 04:38:27;;;;;;;13.53;7.90;;;;;;;6.65;82.53;100259.84;1784839;80;21284;-82
2021/04/24 04:41:33;;;;;;;11.90;8.15;;;;;;;6.79;81.30;100281.59;1784901;80;21149;-82
2021/04/24 04:44:39;;;;;;;16.32;8.23;;;;;;;6.84;80.52;100283.34;1785419;80;21275;-82
2021/04/24 04:47:45;;;;;;;14.78;7.40;;;;;;;6.88;79.56;100277.95;1785298;80;21220;-82
2021/04/24 04:50:50;;;;;;;15.08;6.85;;;;;;;6.91;79.61;100277.63;1785178;80;21782;-82
2021/04/24 04:53:56;;;;;;;16.05;7.37;;;;;;;6.98;79.31;100275.16;1784479;80;21335;-83
2021/04/24 04:57:03;;;;;;;16.52;8.43;;;;;;;7.05;78.50;100278.11;1785397;80;21165;-83
2021/04/24 05:00:11;;;;;;;14.95;6.58;;;;;;;7.11;78.22;100282.95;1785322;80;21707;-83
2021/04/24 05:03:18;;;;;;;11.73;5.70;;;;;;;7.26;78.59;100285.98;1785431;80;21192;-83
2021/04/24 05:06:17;;;;;;;12.93;6.28;;;;;;;7.38;76.24;100281.48;1785281;80;21204;-83
2021/04/24 05:09:23;;;;;;;11.18;6.08;;;;;;;7.49;76.04;100287.72;1785511;80;21288;-82
2021/04/24 05:12:29;;;;;;;18.25;6.05;;;;;;;7.51;75.36;100289.77;1785385;80;21295;-83
2021/04/24 05:15:34;;;;;;;12.03;6.28;;;;;;;7.57;74.69;100290.49;1785444;80;21296;-82
2021/04/24 05:18:40;;;;;;;15.78;6.10;;;;;;;7.68;73.09;100275.29;1785244;80;21296;-82
2021/04/24 05:21:46;;;;;;;9.23;5.58;;;;;;;7.74;72.82;100292.85;1785613;80;21260;-82
2021/04/24 05:24:52;;;;;;;11.50;5.58;;;;;;;7.80;72.73;100291.70;1784674;80;21731;-83
2021/04/24 05:27:58;;;;;;;14.13;6.15;;;;;;;7.89;72.27;100300.28;1785440;80;21216;-83
2021/04/24 05:31:06;;;;;;;10.10;5.55;;;;;;;7.92;71.91;100291.80;1784954;80;21284;-83
2021/04/24 05:34:14;;;;;;;8.68;5.12;;;;;;;8.06;73.20;100309.94;1771049;80;21182;-83
2021/04/24 05:37:20;;;;;;;12.33;5.30;;;;;;;8.13;72.80;100310.98;1785562;80;21328;-83
2021/04/24 05:40:26;;;;;;;9.33;4.80;;;;;;;8.18;71.74;100308.13;1785568;80;21268;-83
2021/04/24 05:43:32;;;;;;;12.68;5.08;;;;;;;8.29;72.26;100309.74;1766996;80;21787;-83
2021/04/24 05:46:39;;;;;;;10.85;4.17;;;;;;;8.42;70.98;100310.67;1764574;80;21257;-83
2021/04/24 05:49:46;;;;;;;10.10;4.83;;;;;;;8.51;68.71;100316.52;1779433;80;21254;-83
2021/04/24 05:52:52;;;;;;;12.28;5.25;;;;;;;8.58;67.75;100321.68;1779862;80;21192;-83
2021/04/24 05:55:57;;;;;;;10.63;5.03;;;;;;;8.67;68.60;100319.85;1779843;80;21825;-83
2021/04/24 05:59:04;;;;;;;9.40;4.22;;;;;;;8.78;68.18;100317.33;1779464;80;21316;-82
2021/04/24 06:02:10;;;;;;;9.33;5.10;;;;;;;8.86;67.86;100323.67;1779442;80;21207;-83
2021/04/24 06:05:15;;;;;;;13.78;5.03;;;;;;;8.95;66.31;100327.29;1779967;80;21850;-83
2021/04/24 06:08:21;;;;;;;10.28;4.97;;;;;;;9.00;65.99;100329.52;1779747;80;21300;-83
2021/04/24 06:11:28;;;;;;;7.30;3.98;;;;;;;9.03;66.62;100338.72;1765404;80;21268;-83
2021/04/24 06:14:35;;;;;;;6.83;3.80;;;;;;;9.06;66.27;100341.13;1780011;80;21264;-83
2021/04/24 06:17:41;;;;;;;6.30;3.62;;;;;;;9.11;65.75;100343.69;1779814;80;21861;-83
2021/04/24 06:20:46;;;;;;;8.40;4.05;;;;;;;9.13;65.79;100335.36;1779733;80;21288;-83
2021/04/24 06:23:53;;;;;;;11.88;4.17;;;;;;;9.09;64.14;100344.90;1779862;80;21196;-83
2021/04/24 06:26:58;;;;;;;10.85;4.22;;;;;;;9.11;64.80;100345.57;1765156;80;21200;-84
2021/04/24 06:30:04;;;;;;;10.45;3.83;;;;;;;9.17;63.85;100351.23;1779829;80;21260;-83
2021/04/24 06:33:10;;;;;;;7.47;3.35;;;;;;;9.24;62.53;100347.32;1779702;80;21228;-83
2021/04/24 06:36:17;;;;;;;11.40;3.75;;;;;;;9.31;60.75;100342.03;1779874;80;21289;-84
2021/04/24 06:39:23;;;;;;;8.48;3.25;;;;;;;9.38;59.66;100360.83;1779154;80;21161;-83
2021/04/24 06:42:28;;;;;;;8.55;2.87;;;;;;;9.39;60.86;100355.20;1780102;80;21279;-83
2021/04/24 06:45:33;;;;;;;7.65;2.50;;;;;;;9.37;58.25;100361.86;1782733;80;21837;-84
2021/04/24 06:48:40;;;;;;;5.55;2.80;;;;;;;9.39;57.07;100363.38;1785423;80;21189;-84
2021/04/24 06:51:45;;;;;;;5.30;2.20;;;;;;;9.50;56.66;100364.08;1785265;80;21284;-83
2021/04/24 06:54:50;;;;;;;6.42;2.67;;;;;;;9.59;54.58;100360.34;1785267;80;21169;-83
2021/04/24 06:57:55;;;;;;;3.45;2.02;;;;;;;9.67;54.31;100371.28;1784766;80;21196;-83
2021/04/24 07:01:01;;;;;;;3.62;2.10;;;;;;;9.73;53.00;100374.70;1784895;80;21691;-83
2021/04/24 07:04:06;;;;;;;2.70;1.72;;;;;;;9.71;51.60;100374.02;1768736;80;21193;-83
2021/04/24 07:07:11;;;;;;;3.72;2.10;;;;;;;9.78;56.61;100375.04;1771793;80;21311;-83
2021/04/24 07:10:18;;;;;;;5.05;2.52;;;;;;;9.88;50.70;100373.50;1784888;80;21339;-83
2021/04/24 07:13:25;;;;;;;4.62;2.75;;;;;;;9.91;50.16;100384.95;1785405;80;21277;-83
2021/04/24 07:16:30;;;;;;;5.10;1.87;;;;;;;9.87;50.83;100382.22;1785359;80;21296;-83
2021/04/24 07:19:37;;;;;;;6.75;2.70;;;;;;;9.89;50.54;100373.88;1785356;80;21184;-83
2021/04/24 07:22:41;;;;;;;5.12;2.70;;;;;;;9.89;50.21;100388.90;1785337;80;21216;-83
2021/04/24 07:25:48;;;;;;;3.40;2.20;;;;;;;9.93;51.44;100387.02;1784819;80;21220;-83
2021/04/24 07:28:53;;;;;;;5.50;2.50;;;;;;;10.05;52.18;100392.14;1785133;79;21196;-83
2021/04/24 07:32:00;;;;;;;5.20;2.30;;;;;;;10.14;50.55;100389.75;1783561;80;21264;-83
2021/04/24 07:35:05;;;;;;;3.72;2.17;;;;;;;10.26;51.74;100396.61;1783070;80;21165;-83
2021/04/24 07:38:11;;;;;;;3.27;1.87;;;;;;;10.37;49.90;100396.77;1783633;80;21338;-83
2021/04/24 07:41:17;;;;;;;6.35;2.35;;;;;;;10.46;48.68;100393.84;1782503;80;21173;-83
2021/04/24 07:44:24;;;;;;;4.50;2.20;;;;;;;10.48;47.98;100398.61;1783717;80;21288;-83
2021/04/24 07:47:30;;;;;;;3.10;1.60;;;;;;;10.53;49.55;100401.34;1783513;80;21308;-83
2021/04/24 07:50:36;;;;;;;3.95;1.75;;;;;;;10.55;47.47;100397.94;1783909;80;21691;-83
2021/04/24 07:53:42;;;;;;;4.58;2.52;;;;;;;10.58;47.28;100402.52;1783566;80;21165;-83
2021/04/24 07:56:49;;;;;;;5.78;2.22;;;;;;;10.66;48.56;100412.61;1783584;80;21185;-83
2021/04/24 07:59:54;;;;;;;4.78;2.33;;;;;;;10.72;48.67;100399.59;1782962;80;21336;-83
2021/04/24 08:03:00;;;;;;;4.97;2.22;;;;;;;10.72;48.95;100407.27;1783397;80;21292;-83
2021/04/24 08:06:06;;;;;;;4.67;2.10;;;;;;;10.81;47.41;100402.64;1783593;80;21145;-83
2021/04/24 08:09:13;;;;;;;4.65;2.50;;;;;;;10.75;46.90;100415.66;1783826;80;21272;-83
2021/04/24 08:12:19;;;;;;;7.30;2.70;;;;;;;10.55;48.01;100417.94;1783143;80;21276;-83
2021/04/24 08:15:23;;;;;;;6.17;2.47;;;;;;;10.42;47.49;100417.09;1783432;80;21204;-83
2021/04/24 08:18:29;;;;;;;3.12;1.85;;;;;;;10.47;48.54;100422.05;1782886;80;21834;-83
2021/04/24 08:21:35;;;;;;;5.05;2.10;;;;;;;10.68;48.51;100410.53;1783928;80;21161;-83
2021/04/24 08:24:42;;;;;;;3.33;1.92;;;;;;;10.90;48.70;100402.11;1783757;80;21311;-83
2021/04/24 08:27:47;;;;;;;4.37;2.37;;;;;;;11.12;47.48;100397.75;1782629;80;21813;-83
2021/04/24 08:30:53;;;;;;;4.12;2.20;;;;;;;11.35;47.22;100393.71;1751674;80;21272;-83
2021/04/24 08:33:59;;;;;;;2.17;1.65;;;;;;;11.48;47.96;100400.31;1783808;80;21296;-83
2021/04/24 08:37:07;;;;;;;4.42;2.05;;;;;;;11.58;44.11;100389.64;1783439;80;21715;-83
2021/04/24 08:40:14;;;;;;;7.60;2.45;;;;;;;11.55;45.21;100399.06;1783802;80;21276;-83
2021/04/24 08:43:20;;;;;;;6.22;2.08;;;;;;;11.47;45.42;100404.06;1783693;80;21185;-83
2021/04/24 08:46:25;;;;;;;3.87;2.00;;;;;;;11.58;46.98;100393.23;1779015;80;21272;-83
2021/04/24 08:49:32;;;;;;;3.15;1.98;;;;;;;11.77;46.19;100393.28;1769889;81;21724;-83
2021/04/24 08:52:38;;;;;;;3.62;1.98;;;;;;;11.98;47.02;100389.37;1770169;81;21993;-83
2021/04/24 08:55:45;;;;;;;3.80;2.20;;;;;;;12.17;46.10;100404.98;1768757;80;21174;-83
2021/04/24 08:58:51;;;;;;;4.47;2.02;;;;;;;12.10;44.51;100402.66;1769005;81;21819;-83
2021/04/24 09:01:57;;;;;;;4.87;2.40;;;;;;;11.82;44.97;100400.47;1770116;81;21795;-83
2021/04/24 09:05:04;;;;;;;4.92;1.70;;;;;;;11.73;45.97;100390.56;1770157;81;21684;-83
2021/04/24 09:08:13;;;;;;;3.47;1.55;;;;;;;11.86;46.04;100393.59;1770098;81;21328;-83
2021/04/24 09:11:21;;;;;;;3.27;1.85;;;;;;;12.06;45.49;100398.58;1770074;81;21300;-83
2021/04/24 09:14:30;;;;;;;6.37;2.10;;;;;;;12.05;42.85;100398.25;1769845;81;21155;-83
2021/04/24 09:18:07;;;;;;;4.30;2.05;;;;;;;12.09;45.48;100392.70;1761699;81;21284;-83
2021/04/24 09:21:14;;;;;;;5.25;2.15;;;;;;;12.17;44.92;100401.72;1770150;81;21272;-83
2021/04/24 09:24:39;;;;;;;3.95;2.10;;;;;;;12.23;44.83;100396.89;1769643;81;21296;-83
2021/04/24 09:27:53;;;;;;;4.33;2.27;;;;;;;12.32;42.34;100397.64;1769990;81;21281;-82
2021/04/24 09:30:57;;;;;;;8.53;2.52;;;;;;;12.27;43.38;100409.69;1770085;81;21292;-83
2021/04/24 09:34:07;;;;;;;5.55;2.87;;;;;;;12.09;43.27;100403.67;1769701;81;21193;-83
2021/04/24 09:37:14;;;;;;;3.87;1.85;;;;;;;11.98;44.27;100401.70;1769913;81;21738;-83
2021/04/24 09:40:19;;;;;;;6.10;2.62;;;;;;;11.97;45.31;100399.16;1769826;81;21855;-82
2021/04/24 09:43:25;;;;;;;7.50;3.72;;;;;;;11.97;43.90;100398.63;1770004;81;21268;-82
2021/04/24 09:46:36;;;;;;;6.00;2.17;;;;;;;11.82;44.85;100400.47;1769964;81;21261;-82
2021/04/24 09:49:43;;;;;;;4.83;2.65;;;;;;;11.77;44.72;100398.23;1783653;80;21798;-82
2021/04/24 09:52:47;;;;;;;4.92;2.30;;;;;;;11.63;44.60;100402.28;1783481;80;21305;-82
2021/04/24 09:55:55;;;;;;;5.58;2.30;;;;;;;11.52;46.32;100402.16;1783566;80;21273;-82
2021/04/24 09:59:09;;;;;;;3.92;2.35;;;;;;;11.44;45.44;100405.81;1783353;80;21295;-82
2021/04/24 10:02:14;;;;;;;8.10;2.90;;;;;;;11.32;45.26;100390.80;1783170;80;21165;-82
2021/04/24 10:05:24;;;;;;;3.50;2.05;;;;;;;11.17;45.36;100396.70;1783532;80;21264;-82
2021/04/24 10:08:31;;;;;;;10.48;2.20;;;;;;;11.09;45.95;100387.15;1783239;80;21169;-82
2021/04/24 10:11:38;;;;;;;5.70;2.27;;;;;;;11.03;46.42;100390.09;1783342;80;21838;-82
2021/04/24 10:14:49;;;;;;;2.80;1.92;;;;;;;11.00;47.65;100386.33;1783443;80;21284;-82
2021/04/24 10:18:07;;;;;;;4.05;2.62;;;;;;;11.00;47.58;100394.02;1782633;80;21229;-83
2021/04/24 10:21:14;;;;;;;3.02;2.00;;;;;;;11.04;47.42;100388.20;1782816;80;21283;-82
2021/04/24 10:24:20;;;;;;;4.15;1.98;;;;;;;11.18;47.93;100386.93;1781443;80;21288;-82
2021/04/24 10:27:28;;;;;;;4.58;2.45;;;;;;;11.35;47.57;100382.76;1783120;80;21821;-82
2021/04/24 10:30:35;;;;;;;3.45;2.00;;;;;;;11.49;46.21;100384.73;1782589;80;21272;-82
2021/04/24 10:33:41;;;;;;;8.43;2.70;;;;;;;11.56;46.11;100376.63;1782983;80;21304;-82
2021/04/24 10:36:50;;;;;;;4.85;2.08;;;;;;;11.52;46.02;100378.34;1783047;80;21276;-82
2021/04/24 10:39:56;;;;;;;3.60;2.02;;;;;;;11.39;44.96;100385.48;1783495;80;21181;-82
2021/04/24 10:43:04;;;;;;;5.58;2.22;;;;;;;11.24;46.30;100393.57;1782908;80;21319;-82
2021/04/24 10:46:35;;;;;;;4.25;1.90;;;;;;;11.06;46.73;100396.59;1783585;80;21264;-82
2021/04/24 10:49:42;;;;;;;4.75;2.25;;;;;;;10.99;47.47;100390.95;1770906;80;21316;-82
2021/04/24 10:52:50;;;;;;;2.98;2.10;;;;;;;11.04;49.32;100385.47;1770159;81;22236;-82
2021/04/24 10:55:57;;;;;;;5.78;2.25;;;;;;;11.04;47.02;100385.47;1770205;81;21268;-82
2021/04/24 10:59:27;;;;;;;3.85;1.87;;;;;;;11.06;48.38;100382.90;1769649;81;21281;-82
2021/04/24 11:02:37;;;;;;;4.83;2.33;;;;;;;11.13;48.14;100389.87;1770060;81;21185;-82
2021/04/24 11:05:49;;;;;;;5.20;2.60;;;;;;;11.18;47.14;100383.34;1782313;79;21331;-82
2021/04/24 11:08:55;;;;;;;4.12;2.30;;;;;;;11.24;47.62;100383.50;1771227;81;21882;-82
2021/04/24 11:12:00;;;;;;;3.65;2.37;;;;;;;11.35;47.24;100381.39;1762864;81;21846;-82
2021/04/24 11:15:07;;;;;;;3.98;2.37;;;;;;;11.44;45.59;100368.84;1743955;81;21854;-82
2021/04/24 11:18:14;;;;;;;6.90;2.00;;;;;;;11.51;45.34;100368.95;1771485;81;21239;-82
2021/04/24 11:21:35;;;;;;;2.52;1.82;;;;;;;11.53;45.01;100365.53;1771242;81;21174;-82
2021/04/24 11:24:43;;;;;;;4.10;2.25;;;;;;;11.58;43.92;100364.47;1771821;81;21194;-82
2021/04/24 11:28:13;;;;;;;3.05;2.20;;;;;;;11.61;43.77;100369.56;1771745;81;21831;-82
2021/04/24 11:31:19;;;;;;;4.47;2.22;;;;;;;11.70;44.61;100381.33;1771913;81;21149;-82
2021/04/24 11:34:40;;;;;;;3.90;2.25;;;;;;;11.81;45.05;100375.44;1771663;81;21261;-82
2021/04/24 11:37:50;;;;;;;5.67;2.22;;;;;;;11.86;43.51;100377.14;1771266;81;21300;-82
2021/04/24 11:40:55;;;;;;;3.95;2.42;;;;;;;11.86;43.59;100379.04;1771753;81;21292;-82
2021/04/24 11:44:00;;;;;;;4.92;2.22;;;;;;;11.91;44.89;100380.19;1771536;81;21170;-81
2021/04/24 11:47:07;;;;;;;3.47;1.80;;;;;;;12.03;45.37;100378.70;1771379;81;21836;-82
2021/04/24 11:50:15;;;;;;;4.55;2.22;;;;;;;12.14;42.73;100371.95;1770701;81;21723;-82
2021/04/24 11:53:23;;;;;;;3.30;1.90;;;;;;;12.24;43.27;100374.43;1770909;81;21193;-82
2021/04/24 11:56:28;;;;;;;3.62;2.17;;;;;;;12.33;43.64;100369.69;1771535;81;21174;-82
2021/04/24 11:59:41;;;;;;;3.58;2.60;;;;;;;12.34;42.92;100371.42;1771184;81;21339;-82
2021/04/24 12:02:50;;;;;;;5.22;2.33;;;;;;;12.41;43.07;100364.98;1771585;81;21312;-81
2021/04/24 12:05:57;;;;;;;4.97;2.42;;;;;;;12.44;43.37;100364.62;1763559;81;21288;-82
2021/04/24 12:09:18;;;;;;;4.37;2.25;;;;;;;12.39;42.37;100365.70;1770218;81;21734;-81
2021/04/24 12:12:35;;;;;;;9.13;2.20;;;;;;;12.25;41.98;100367.90;1771286;81;21817;-82
2021/04/24 12:15:39;;;;;;;4.12;2.10;;;;;;;12.04;42.68;100374.06;1769985;80;21757;-82
2021/04/24 12:18:44;;;;;;;5.58;2.75;;;;;;;11.83;43.78;100394.47;1770361;81;21331;-82
2021/04/24 12:21:49;;;;;;;7.10;3.15;;;;;;;11.48;46.41;100397.58;1770342;81;21311;-82
2021/04/24 12:25:12;;;;;;;5.53;2.70;;;;;;;11.28;46.49;100407.77;1771695;81;21343;-81
2021/04/24 12:28:24;;;;;;;5.08;2.80;;;;;;;11.22;46.42;100391.55;1771703;81;21185;-82
2021/04/24 12:31:37;;;;;;;4.87;2.72;;;;;;;11.26;48.20;100399.74;1771741;81;21300;-82
2021/04/24 12:34:43;;;;;;;8.50;3.52;;;;;;;11.27;45.77;100397.33;1771420;81;21272;-82
2021/04/24 12:37:47;;;;;;;8.23;3.25;;;;;;;11.13;47.48;100395.34;1763317;81;21308;-82
2021/04/24 12:40:57;;;;;;;8.05;3.37;;;;;;;11.03;48.62;100404.29;1771836;81;21350;-82
2021/04/24 12:44:03;;;;;;;4.78;2.90;;;;;;;10.92;47.52;100399.55;1771509;81;21284;-82
2021/04/24 12:47:09;;;;;;;5.45;3.17;;;;;;;10.90;48.21;100407.58;1771838;81;21323;-82
2021/04/24 12:50:22;;;;;;;5.42;2.80;;;;;;;10.94;48.32;100387.05;1773965;80;21308;-82
2021/04/24 12:53:44;;;;;;;5.95;2.80;;;;;;;10.97;48.03;100399.87;1785358;80;21300;-82
2021/04/24 12:56:47;;;;;;;6.12;2.70;;;;;;;11.01;48.89;100399.00;1784945;80;21326;-81
2021/04/24 13:00:08;;;;;;;8.40;3.27;;;;;;;11.04;47.88;100400.00;1785548;80;21810;-82
2021/04/24 13:03:36;;;;;;;7.87;2.87;;;;;;;11.03;47.42;100390.09;1772211;80;21347;-82
2021/04/24 13:06:44;;;;;;;7.70;2.60;;;;;;;11.04;48.66;100404.62;1772506;80;21263;-82
2021/04/24 13:09:51;;;;;;;7.30;2.67;;;;;;;11.05;46.35;100407.17;1785525;80;21264;-82
2021/04/24 13:13:03;;;;;;;3.17;2.08;;;;;;;11.05;46.79;100403.06;1785538;80;21224;-82
2021/04/24 13:16:09;;;;;;;5.87;2.50;;;;;;;11.04;44.59;100410.09;1784544;80;21168;-82
2021/04/24 13:19:14;;;;;;;8.53;2.58;;;;;;;10.99;45.42;100414.21;1785557;80;21260;-82
2021/04/24 13:22:19;;;;;;;5.00;2.42;;;;;;;10.97;45.97;100417.66;1785145;80;21311;-82
2021/04/24 13:25:40;;;;;;;3.90;2.08;;;;;;;10.96;47.21;100421.43;1785390;80;21157;-82
2021/04/24 13:28:47;;;;;;;4.28;3.00;;;;;;;10.93;47.25;100436.82;1785339;80;21223;-82
2021/04/24 13:31:53;;;;;;;5.78;3.02;;;;;;;10.83;47.42;100420.27;1785412;80;21212;-81
2021/04/24 13:35:05;;;;;;;7.05;3.35;;;;;;;10.62;47.33;100433.98;1785276;80;21148;-82
2021/04/24 13:38:14;;;;;;;4.78;3.08;;;;;;;10.35;51.53;100447.53;1772230;80;21730;-82
2021/04/24 13:41:24;;;;;;;7.37;3.12;;;;;;;9.97;51.03;100430.75;1785508;80;21296;-82
2021/04/24 13:44:31;;;;;;;3.85;2.75;;;;;;;9.74;52.23;100455.64;1785579;80;21288;-82
2021/04/24 13:47:38;;;;;;;5.72;3.08;;;;;;;9.62;53.39;100458.33;1753506;80;21287;-85
2021/04/24 13:50:45;;;;;;;6.60;3.10;;;;;;;9.53;52.83;100453.87;1785474;80;21150;-85
2021/04/24 13:53:52;;;;;;;4.85;3.37;;;;;;;9.39;53.96;100450.75;1772342;80;21299;-85
2021/04/24 13:57:01;;;;;;;5.58;3.10;;;;;;;9.37;54.83;100454.67;1785492;80;21663;-85
2021/04/24 14:00:06;;;;;;;4.35;2.98;;;;;;;9.38;55.41;100465.94;1785468;80;21782;-86
2021/04/24 14:03:14;;;;;;;6.15;2.87;;;;;;;9.38;55.97;100459.96;1784342;80;21308;-85
2021/04/24 14:06:20;;;;;;;9.70;3.80;;;;;;;9.35;56.41;100463.02;1785680;80;21794;-85
2021/04/24 14:09:25;;;;;;;4.50;3.30;;;;;;;9.33;55.90;100458.75;1785436;80;21161;-85
2021/04/24 14:12:30;;;;;;;6.50;3.70;;;;;;;9.31;54.81;100479.88;1752232;80;21287;-85
2021/04/24 14:15:38;;;;;;;5.95;3.58;;;;;;;9.28;55.78;100484.33;1785572;80;21165;-85
2021/04/24 14:18:43;;;;;;;5.12;3.47;;;;;;;9.23;53.96;100471.68;1785576;80;21793;-85
2021/04/24 14:21:51;;;;;;;6.20;3.33;;;;;;;9.20;55.10;100479.67;1785432;80;21830;-85
2021/04/24 14:24:57;;;;;;;4.57;3.00;;;;;;;9.22;55.47;100488.54;1785870;80;21268;-85
2021/04/24 14:28:02;;;;;;;4.55;2.80;;;;;;;9.26;55.15;100483.10;1785475;80;21192;-85
2021/04/24 14:31:11;;;;;;;5.87;3.30;;;;;;;9.33;54.24;100491.51;1785580;80;21133;-85
2021/04/24 14:34:15;;;;;;;5.70;3.30;;;;;;;9.43;52.89;100484.04;1785546;80;21157;-85
2021/04/24 14:37:22;;;;;;;3.80;2.80;;;;;;;9.48;53.20;100492.08;1785506;80;21177;-85